sensor_id;sensor_type;location;lat;lon;timestamp;pressure;altitude;pressure_sealevel;temperature;humidity
75891;BME280;64571;47.512;19.054;2022-12-11T00:01:18;98390.22;;;4.93;89.25
75891;BME280;64571;47.512;19.054;2022-12-11T00:04:22;98373.19;;;4.91;89.62
75891;BME280;64571;47.512;19.054;2022-12-11T00:07:25;98362.22;;;4.77;89.40
75891;BME280;64571;47.512;19.054;2022-12-11T00:10:27;98365.69;;;4.82;89.47
75891;BME280;64571;47.512;19.054;2022-12-11T00:13:33;98357.72;;;4.81;89.63
75891;BME280;64571;47.512;19.054;2022-12-11T00:16:36;98349.47;;;4.81;89.65
75891;BME280;64571;47.512;19.054;2022-12-11T00:19:39;98349.31;;;4.77;89.02
75891;BME280;64571;47.512;19.054;2022-12-11T00:22:41;98351.34;;;4.72;89.32
75891;BME280;64571;47.512;19.054;2022-12-11T00:25:45;98346.75;;;4.67;89.46
75891;BME280;64571;47.512;19.054;2022-12-11T00:28:52;98346.28;;;4.65;88.99
75891;BME280;64571;47.512;19.054;2022-12-11T00:31:55;98348.63;;;4.58;89.01
75891;BME280;64571;47.512;19.054;2022-12-11T00:34:58;98349.56;;;4.53;89.06
75891;BME280;64571;47.512;19.054;2022-12-11T00:38:00;98358.25;;;4.47;88.76
75891;BME280;64571;47.512;19.054;2022-12-11T00:41:02;98363.84;;;4.42;88.90
75891;BME280;64571;47.512;19.054;2022-12-11T00:44:05;98347.53;;;4.45;89.58
75891;BME280;64571;47.512;19.054;2022-12-11T00:47:07;98343.72;;;4.32;88.76
75891;BME280;64571;47.512;19.054;2022-12-11T00:50:10;98348.06;;;4.34;89.14
75891;BME280;64571;47.512;19.054;2022-12-11T00:53:13;98346.97;;;4.21;88.84
75891;BME280;64571;47.512;19.054;2022-12-11T00:56:18;98353.28;;;4.21;89.16
75891;BME280;64571;47.512;19.054;2022-12-11T00:59:21;98357.53;;;4.27;88.90
75891;BME280;64571;47.512;19.054;2022-12-11T01:02:25;98356.34;;;4.20;88.76
75891;BME280;64571;47.512;19.054;2022-12-11T01:05:30;98348.09;;;4.20;88.48
75891;BME280;64571;47.512;19.054;2022-12-11T01:08:33;98360.00;;;4.15;88.23
75891;BME280;64571;47.512;19.054;2022-12-11T01:11:41;98346.87;;;4.12;88.65
75891;BME280;64571;47.512;19.054;2022-12-11T01:14:44;98351.03;;;4.10;88.65
75891;BME280;64571;47.512;19.054;2022-12-11T01:17:47;98352.88;;;4.14;88.60
75891;BME280;64571;47.512;19.054;2022-12-11T01:20:49;98376.50;;;4.15;88.94
75891;BME280;64571;47.512;19.054;2022-12-11T01:23:52;98370.59;;;4.08;88.34
75891;BME280;64571;47.512;19.054;2022-12-11T01:26:54;98364.38;;;4.02;88.62
75891;BME280;64571;47.512;19.054;2022-12-11T01:29:56;98354.31;;;3.98;88.42
75891;BME280;64571;47.512;19.054;2022-12-11T01:32:59;98363.69;;;3.97;88.72
75891;BME280;64571;47.512;19.054;2022-12-11T01:36:13;98363.84;;;3.87;88.88
75891;BME280;64571;47.512;19.054;2022-12-11T01:39:16;98368.16;;;3.93;89.27
75891;BME280;64571;47.512;19.054;2022-12-11T01:42:19;98373.22;;;3.86;88.49
75891;BME280;64571;47.512;19.054;2022-12-11T01:48:30;98367.53;;;3.82;88.74
75891;BME280;64571;47.512;19.054;2022-12-11T01:51:38;98363.84;;;3.73;88.58
75891;BME280;64571;47.512;19.054;2022-12-11T01:54:43;98367.81;;;3.67;88.67
75891;BME280;64571;47.512;19.054;2022-12-11T01:57:47;98362.00;;;3.68;88.53
75891;BME280;64571;47.512;19.054;2022-12-11T02:00:51;98372.72;;;3.70;88.74
75891;BME280;64571;47.512;19.054;2022-12-11T02:03:55;98372.88;;;3.60;88.47
75891;BME280;64571;47.512;19.054;2022-12-11T02:06:58;98380.22;;;3.64;88.24
75891;BME280;64571;47.512;19.054;2022-12-11T02:10:00;98377.56;;;3.59;88.21
75891;BME280;64571;47.512;19.054;2022-12-11T02:13:08;98377.44;;;3.50;87.94
75891;BME280;64571;47.512;19.054;2022-12-11T02:16:20;98374.78;;;3.45;88.17
75891;BME280;64571;47.512;19.054;2022-12-11T02:19:51;98371.69;;;3.33;87.24
75891;BME280;64571;47.512;19.054;2022-12-11T02:32:53;98364.19;;;3.25;87.68
75891;BME280;64571;47.512;19.054;2022-12-11T02:35:56;98372.88;;;3.13;87.92
75891;BME280;64571;47.512;19.054;2022-12-11T02:39:00;98384.06;;;3.17;87.70
75891;BME280;64571;47.512;19.054;2022-12-11T02:42:05;98361.31;;;3.16;87.65
75891;BME280;64571;47.512;19.054;2022-12-11T02:45:10;98370.03;;;3.18;87.78
75891;BME280;64571;47.512;19.054;2022-12-11T02:48:14;98355.81;;;3.16;87.52
75891;BME280;64571;47.512;19.054;2022-12-11T02:51:22;98364.56;;;3.18;86.97
75891;BME280;64571;47.512;19.054;2022-12-11T02:54:29;98359.22;;;3.08;86.97
75891;BME280;64571;47.512;19.054;2022-12-11T02:57:54;98364.94;;;3.12;87.43
75891;BME280;64571;47.512;19.054;2022-12-11T03:00:59;98359.50;;;3.25;87.71
75891;BME280;64571;47.512;19.054;2022-12-11T03:04:01;98352.53;;;3.14;86.68
75891;BME280;64571;47.512;19.054;2022-12-11T03:07:08;98359.31;;;3.03;86.98
75891;BME280;64571;47.512;19.054;2022-12-11T03:10:16;98354.25;;;3.10;87.44
75891;BME280;64571;47.512;19.054;2022-12-11T03:13:23;98357.63;;;3.07;86.82
75891;BME280;64571;47.512;19.054;2022-12-11T03:16:34;98353.84;;;3.03;86.87
75891;BME280;64571;47.512;19.054;2022-12-11T03:19:52;98353.22;;;3.06;87.06
75891;BME280;64571;47.512;19.054;2022-12-11T03:26:23;98354.13;;;3.01;86.84
75891;BME280;64571;47.512;19.054;2022-12-11T03:29:31;98353.75;;;3.08;87.71
75891;BME280;64571;47.512;19.054;2022-12-11T03:32:47;98352.13;;;3.07;87.41
75891;BME280;64571;47.512;19.054;2022-12-11T03:35:54;98361.19;;;2.89;86.51
75891;BME280;64571;47.512;19.054;2022-12-11T03:39:02;98354.44;;;2.81;86.67
75891;BME280;64571;47.512;19.054;2022-12-11T03:42:10;98348.75;;;2.77;86.82
75891;BME280;64571;47.512;19.054;2022-12-11T03:45:15;98351.62;;;2.86;87.49
75891;BME280;64571;47.512;19.054;2022-12-11T03:48:19;98343.03;;;2.74;87.29
75891;BME280;64571;47.512;19.054;2022-12-11T03:51:22;98361.56;;;2.63;86.83
75891;BME280;64571;47.512;19.054;2022-12-11T03:54:26;98353.56;;;2.67;87.26
75891;BME280;64571;47.512;19.054;2022-12-11T03:57:32;98348.38;;;2.65;87.28
75891;BME280;64571;47.512;19.054;2022-12-11T04:00:36;98348.91;;;2.67;87.20
75891;BME280;64571;47.512;19.054;2022-12-11T04:03:39;98349.50;;;2.64;87.12
75891;BME280;64571;47.512;19.054;2022-12-11T04:06:41;98357.34;;;2.52;86.87
75891;BME280;64571;47.512;19.054;2022-12-11T04:09:44;98363.81;;;2.61;86.62
75891;BME280;64571;47.512;19.054;2022-12-11T04:12:46;98355.50;;;2.66;87.14
75891;BME280;64571;47.512;19.054;2022-12-11T04:15:49;98351.28;;;2.55;86.76
75891;BME280;64571;47.512;19.054;2022-12-11T04:18:51;98367.94;;;2.59;87.39
75891;BME280;64571;47.512;19.054;2022-12-11T04:22:14;98361.66;;;2.58;87.39
75891;BME280;64571;47.512;19.054;2022-12-11T04:25:35;98358.91;;;2.39;86.87
75891;BME280;64571;47.512;19.054;2022-12-11T04:28:38;98345.41;;;2.43;87.50
75891;BME280;64571;47.512;19.054;2022-12-11T04:31:41;98367.06;;;2.44;87.32
75891;BME280;64571;47.512;19.054;2022-12-11T04:34:43;98375.78;;;2.46;87.20
75891;BME280;64571;47.512;19.054;2022-12-11T04:37:46;98386.00;;;2.41;87.23
75891;BME280;64571;47.512;19.054;2022-12-11T04:40:48;98379.78;;;2.35;87.25
75891;BME280;64571;47.512;19.054;2022-12-11T04:43:51;98376.44;;;2.38;87.51
75891;BME280;64571;47.512;19.054;2022-12-11T04:46:53;98385.84;;;2.32;87.62
75891;BME280;64571;47.512;19.054;2022-12-11T04:49:55;98402.53;;;2.36;87.54
75891;BME280;64571;47.512;19.054;2022-12-11T04:52:58;98406.38;;;2.35;87.37
75891;BME280;64571;47.512;19.054;2022-12-11T04:56:03;98416.16;;;2.41;87.41
75891;BME280;64571;47.512;19.054;2022-12-11T04:59:06;98412.91;;;2.39;87.50
75891;BME280;64571;47.512;19.054;2022-12-11T05:02:08;98425.44;;;2.45;87.32
75891;BME280;64571;47.512;19.054;2022-12-11T05:05:11;98408.44;;;2.43;87.64
75891;BME280;64571;47.512;19.054;2022-12-11T05:08:14;98424.84;;;2.48;87.61
75891;BME280;64571;47.512;19.054;2022-12-11T05:11:16;98427.38;;;2.44;87.21
75891;BME280;64571;47.512;19.054;2022-12-11T05:14:19;98438.25;;;2.49;87.22
75891;BME280;64571;47.512;19.054;2022-12-11T05:17:22;98447.22;;;2.55;86.69
75891;BME280;64571;47.512;19.054;2022-12-11T05:20:24;98441.81;;;2.50;86.91
75891;BME280;64571;47.512;19.054;2022-12-11T05:23:28;98435.41;;;2.36;86.89
75891;BME280;64571;47.512;19.054;2022-12-11T05:26:30;98440.91;;;2.36;87.07
75891;BME280;64571;47.512;19.054;2022-12-11T05:29:33;98455.94;;;2.38;87.21
75891;BME280;64571;47.512;19.054;2022-12-11T05:32:35;98458.16;;;2.36;87.07
75891;BME280;64571;47.512;19.054;2022-12-11T05:35:38;98442.94;;;2.49;87.15
75891;BME280;64571;47.512;19.054;2022-12-11T05:38:40;98444.69;;;2.40;86.47
75891;BME280;64571;47.512;19.054;2022-12-11T05:41:43;98436.53;;;2.35;86.39
75891;BME280;64571;47.512;19.054;2022-12-11T05:44:45;98438.44;;;2.34;86.91
75891;BME280;64571;47.512;19.054;2022-12-11T05:47:48;98438.56;;;2.24;86.26
75891;BME280;64571;47.512;19.054;2022-12-11T05:50:57;98438.44;;;2.34;86.83
75891;BME280;64571;47.512;19.054;2022-12-11T05:54:01;98436.06;;;2.27;86.33
75891;BME280;64571;47.512;19.054;2022-12-11T05:57:04;98431.09;;;2.29;86.50
75891;BME280;64571;47.512;19.054;2022-12-11T06:00:07;98434.72;;;2.25;86.55
75891;BME280;64571;47.512;19.054;2022-12-11T06:03:10;98446.72;;;2.29;86.45
75891;BME280;64571;47.512;19.054;2022-12-11T06:06:13;98452.13;;;2.34;86.19
75891;BME280;64571;47.512;19.054;2022-12-11T06:09:16;98451.38;;;2.28;86.31
75891;BME280;64571;47.512;19.054;2022-12-11T06:12:18;98462.72;;;2.22;86.33
75891;BME280;64571;47.512;19.054;2022-12-11T06:15:21;98466.72;;;2.29;86.52
75891;BME280;64571;47.512;19.054;2022-12-11T06:18:23;98478.91;;;2.18;86.01
75891;BME280;64571;47.512;19.054;2022-12-11T06:21:28;98493.03;;;2.31;86.59
75891;BME280;64571;47.512;19.054;2022-12-11T06:24:31;98494.41;;;2.28;86.06
75891;BME280;64571;47.512;19.054;2022-12-11T06:27:33;98506.19;;;2.28;86.37
75891;BME280;64571;47.512;19.054;2022-12-11T06:30:36;98506.19;;;2.28;86.22
75891;BME280;64571;47.512;19.054;2022-12-11T06:33:41;98509.47;;;2.31;86.52
75891;BME280;64571;47.512;19.054;2022-12-11T06:36:43;98517.97;;;2.29;85.84
75891;BME280;64571;47.512;19.054;2022-12-11T06:39:46;98513.53;;;2.33;85.55
75891;BME280;64571;47.512;19.054;2022-12-11T06:42:48;98528.47;;;2.22;85.14
75891;BME280;64571;47.512;19.054;2022-12-11T06:45:51;98522.19;;;2.21;85.07
75891;BME280;64571;47.512;19.054;2022-12-11T06:48:53;98540.31;;;2.17;84.88
75891;BME280;64571;47.512;19.054;2022-12-11T06:51:56;98547.13;;;2.20;85.17
75891;BME280;64571;47.512;19.054;2022-12-11T06:54:58;98541.88;;;2.23;85.35
75891;BME280;64571;47.512;19.054;2022-12-11T06:58:01;98548.91;;;2.35;85.48
75891;BME280;64571;47.512;19.054;2022-12-11T07:01:04;98559.03;;;2.34;85.52
75891;BME280;64571;47.512;19.054;2022-12-11T07:04:13;98578.00;;;2.31;85.15
75891;BME280;64571;47.512;19.054;2022-12-11T07:07:16;98569.28;;;2.23;84.57
75891;BME280;64571;47.512;19.054;2022-12-11T07:10:18;98568.22;;;2.19;84.70
75891;BME280;64571;47.512;19.054;2022-12-11T07:13:21;98580.50;;;2.27;84.40
75891;BME280;64571;47.512;19.054;2022-12-11T07:16:23;98594.91;;;2.38;83.99
75891;BME280;64571;47.512;19.054;2022-12-11T07:19:26;98598.50;;;2.33;83.77
75891;BME280;64571;47.512;19.054;2022-12-11T07:22:29;98601.50;;;2.37;83.80
75891;BME280;64571;47.512;19.054;2022-12-11T07:25:31;98595.41;;;2.45;83.75
75891;BME280;64571;47.512;19.054;2022-12-11T07:28:34;98604.81;;;2.63;83.08
75891;BME280;64571;47.512;19.054;2022-12-11T07:31:36;98609.75;;;2.61;82.44
75891;BME280;64571;47.512;19.054;2022-12-11T07:34:40;98615.28;;;2.56;82.18
75891;BME280;64571;47.512;19.054;2022-12-11T07:37:42;98616.66;;;2.58;82.62
75891;BME280;64571;47.512;19.054;2022-12-11T07:40:46;98616.28;;;2.65;82.79
75891;BME280;64571;47.512;19.054;2022-12-11T07:43:48;98626.63;;;2.73;82.10
75891;BME280;64571;47.512;19.054;2022-12-11T07:46:51;98642.84;;;2.69;81.57
75891;BME280;64571;47.512;19.054;2022-12-11T07:49:53;98648.50;;;2.78;81.77
75891;BME280;64571;47.512;19.054;2022-12-11T07:52:56;98636.66;;;2.83;81.62
75891;BME280;64571;47.512;19.054;2022-12-11T07:55:58;98644.63;;;2.84;81.38
75891;BME280;64571;47.512;19.054;2022-12-11T07:59:02;98643.75;;;2.89;81.45
75891;BME280;64571;47.512;19.054;2022-12-11T08:02:05;98656.12;;;2.86;81.29
75891;BME280;64571;47.512;19.054;2022-12-11T08:05:08;98663.16;;;2.68;81.16
75891;BME280;64571;47.512;19.054;2022-12-11T08:08:11;98666.72;;;2.69;81.76
75891;BME280;64571;47.512;19.054;2022-12-11T08:11:14;98667.00;;;2.67;81.49
75891;BME280;64571;47.512;19.054;2022-12-11T08:14:17;98679.50;;;2.78;81.51
75891;BME280;64571;47.512;19.054;2022-12-11T08:17:19;98686.28;;;2.86;81.33
75891;BME280;64571;47.512;19.054;2022-12-11T08:20:30;98681.34;;;2.88;80.92
75891;BME280;64571;47.512;19.054;2022-12-11T08:23:33;98692.22;;;2.98;81.26
75891;BME280;64571;47.512;19.054;2022-12-11T08:26:35;98696.94;;;2.93;80.45
75891;BME280;64571;47.512;19.054;2022-12-11T08:29:38;98684.97;;;2.78;79.96
75891;BME280;64571;47.512;19.054;2022-12-11T08:32:40;98693.59;;;2.96;80.15
75891;BME280;64571;47.512;19.054;2022-12-11T08:35:43;98689.37;;;2.79;79.68
75891;BME280;64571;47.512;19.054;2022-12-11T08:38:48;98706.59;;;2.85;79.54
75891;BME280;64571;47.512;19.054;2022-12-11T08:41:51;98696.44;;;2.86;79.81
75891;BME280;64571;47.512;19.054;2022-12-11T08:44:53;98699.81;;;2.77;79.64
75891;BME280;64571;47.512;19.054;2022-12-11T08:47:57;98704.53;;;2.72;79.46
75891;BME280;64571;47.512;19.054;2022-12-11T08:51:00;98727.53;;;2.76;79.60
75891;BME280;64571;47.512;19.054;2022-12-11T08:54:03;98740.91;;;2.83;79.11
75891;BME280;64571;47.512;19.054;2022-12-11T08:57:05;98728.25;;;2.87;79.50
75891;BME280;64571;47.512;19.054;2022-12-11T09:00:10;98732.88;;;2.91;79.03
75891;BME280;64571;47.512;19.054;2022-12-11T09:03:14;98746.75;;;2.76;79.40
75891;BME280;64571;47.512;19.054;2022-12-11T09:06:18;98751.47;;;2.70;79.13
75891;BME280;64571;47.512;19.054;2022-12-11T09:09:21;98749.53;;;2.71;78.84
75891;BME280;64571;47.512;19.054;2022-12-11T09:12:24;98752.50;;;2.74;79.36
75891;BME280;64571;47.512;19.054;2022-12-11T09:15:26;98739.06;;;2.73;78.80
75891;BME280;64571;47.512;19.054;2022-12-11T09:18:29;98760.22;;;2.72;79.05
75891;BME280;64571;47.512;19.054;2022-12-11T09:21:31;98760.16;;;2.77;78.92
75891;BME280;64571;47.512;19.054;2022-12-11T09:24:34;98749.72;;;2.79;78.88
75891;BME280;64571;47.512;19.054;2022-12-11T09:27:37;98750.19;;;2.87;78.75
75891;BME280;64571;47.512;19.054;2022-12-11T09:30:39;98753.72;;;2.92;78.47
75891;BME280;64571;47.512;19.054;2022-12-11T09:33:42;98760.03;;;2.93;78.40
75891;BME280;64571;47.512;19.054;2022-12-11T09:36:45;98755.00;;;3.00;78.43
75891;BME280;64571;47.512;19.054;2022-12-11T09:39:48;98752.47;;;2.79;78.07
75891;BME280;64571;47.512;19.054;2022-12-11T09:43:00;98765.53;;;2.88;78.49
75891;BME280;64571;47.512;19.054;2022-12-11T09:46:08;98750.59;;;2.75;78.05
75891;BME280;64571;47.512;19.054;2022-12-11T09:49:30;98748.28;;;2.87;78.18
75891;BME280;64571;47.512;19.054;2022-12-11T09:55:54;98757.97;;;2.79;78.12
75891;BME280;64571;47.512;19.054;2022-12-11T10:08:50;98733.78;;;2.82;77.46
75891;BME280;64571;47.512;19.054;2022-12-11T10:18:30;98722.75;;;2.87;76.78
75891;BME280;64571;47.512;19.054;2022-12-11T10:21:38;98728.31;;;2.82;76.62
75891;BME280;64571;47.512;19.054;2022-12-11T10:24:46;98742.03;;;2.82;76.74
75891;BME280;64571;47.512;19.054;2022-12-11T10:28:15;98750.25;;;2.82;77.35
75891;BME280;64571;47.512;19.054;2022-12-11T10:31:45;98746.41;;;2.83;76.94
75891;BME280;64571;47.512;19.054;2022-12-11T10:34:58;98759.03;;;2.78;77.42
75891;BME280;64571;47.512;19.054;2022-12-11T10:41:22;98758.84;;;2.70;77.52
75891;BME280;64571;47.512;19.054;2022-12-11T10:44:28;98751.47;;;2.65;77.19
75891;BME280;64571;47.512;19.054;2022-12-11T10:47:30;98772.03;;;2.68;77.59
75891;BME280;64571;47.512;19.054;2022-12-11T10:50:35;98777.00;;;2.66;77.84
75891;BME280;64571;47.512;19.054;2022-12-11T10:53:39;98771.44;;;2.76;77.94
75891;BME280;64571;47.512;19.054;2022-12-11T10:56:45;98791.78;;;2.65;78.05
75891;BME280;64571;47.512;19.054;2022-12-11T10:59:49;98792.81;;;2.74;78.03
75891;BME280;64571;47.512;19.054;2022-12-11T11:02:52;98778.84;;;2.75;77.61
75891;BME280;64571;47.512;19.054;2022-12-11T11:06:20;98786.25;;;2.70;77.74
75891;BME280;64571;47.512;19.054;2022-12-11T11:09:35;98788.69;;;2.76;77.84
75891;BME280;64571;47.512;19.054;2022-12-11T11:12:42;98795.97;;;2.91;77.49
75891;BME280;64571;47.512;19.054;2022-12-11T11:15:45;98791.97;;;2.78;77.22
75891;BME280;64571;47.512;19.054;2022-12-11T11:18:53;98791.34;;;2.87;77.24
75891;BME280;64571;47.512;19.054;2022-12-11T11:22:11;98783.16;;;2.82;77.26
75891;BME280;64571;47.512;19.054;2022-12-11T11:25:23;98764.97;;;2.91;77.25
75891;BME280;64571;47.512;19.054;2022-12-11T11:28:34;98772.69;;;2.89;76.73
75891;BME280;64571;47.512;19.054;2022-12-11T11:31:37;98763.34;;;2.90;76.91
75891;BME280;64571;47.512;19.054;2022-12-11T11:34:40;98770.72;;;2.94;76.62
75891;BME280;64571;47.512;19.054;2022-12-11T11:37:53;98773.41;;;2.99;76.18
75891;BME280;64571;47.512;19.054;2022-12-11T11:44:55;98809.44;;;2.93;76.21
75891;BME280;64571;47.512;19.054;2022-12-11T11:51:40;98804.94;;;3.02;76.16
75891;BME280;64571;47.512;19.054;2022-12-11T11:55:19;98806.34;;;2.99;76.34
75891;BME280;64571;47.512;19.054;2022-12-11T11:58:35;98815.19;;;2.91;76.40
75891;BME280;64571;47.512;19.054;2022-12-11T12:01:40;98807.72;;;2.97;76.02
75891;BME280;64571;47.512;19.054;2022-12-11T12:04:45;98808.72;;;3.11;75.75
75891;BME280;64571;47.512;19.054;2022-12-11T12:07:58;98827.31;;;3.14;75.45
75891;BME280;64571;47.512;19.054;2022-12-11T12:11:33;98843.47;;;3.21;75.54
75891;BME280;64571;47.512;19.054;2022-12-11T12:24:40;98852.56;;;3.16;75.07
75891;BME280;64571;47.512;19.054;2022-12-11T12:28:02;98851.97;;;3.24;74.81
75891;BME280;64571;47.512;19.054;2022-12-11T12:38:46;98847.03;;;3.21;74.89
75891;BME280;64571;47.512;19.054;2022-12-11T12:41:59;98852.47;;;3.26;75.04
75891;BME280;64571;47.512;19.054;2022-12-11T12:45:16;98841.25;;;3.23;75.04
75891;BME280;64571;47.512;19.054;2022-12-11T12:48:25;98842.81;;;3.34;74.81
75891;BME280;64571;47.512;19.054;2022-12-11T12:51:29;98846.50;;;3.19;74.23
75891;BME280;64571;47.512;19.054;2022-12-11T12:54:32;98856.94;;;3.17;73.90
75891;BME280;64571;47.512;19.054;2022-12-11T12:57:37;98867.59;;;3.24;74.20
75891;BME280;64571;47.512;19.054;2022-12-11T13:00:42;98872.56;;;3.22;74.37
75891;BME280;64571;47.512;19.054;2022-12-11T13:03:57;98883.84;;;3.20;74.31
75891;BME280;64571;47.512;19.054;2022-12-11T13:07:11;98891.44;;;3.28;74.57
75891;BME280;64571;47.512;19.054;2022-12-11T13:10:32;98910.13;;;3.26;73.96
75891;BME280;64571;47.512;19.054;2022-12-11T13:13:45;98902.78;;;3.17;73.74
75891;BME280;64571;47.512;19.054;2022-12-11T13:20:28;98912.16;;;3.16;73.98
75891;BME280;64571;47.512;19.054;2022-12-11T13:23:33;98917.97;;;3.04;74.16
75891;BME280;64571;47.512;19.054;2022-12-11T13:26:36;98930.59;;;3.05;74.17
75891;BME280;64571;47.512;19.054;2022-12-11T13:29:40;98932.16;;;3.16;74.65
75891;BME280;64571;47.512;19.054;2022-12-11T13:39:28;98934.19;;;3.00;73.97
75891;BME280;64571;47.512;19.054;2022-12-11T13:42:43;98941.09;;;2.98;74.12
75891;BME280;64571;47.512;19.054;2022-12-11T13:45:50;98941.91;;;2.98;73.62
75891;BME280;64571;47.512;19.054;2022-12-11T13:48:57;98930.94;;;2.98;74.25
75891;BME280;64571;47.512;19.054;2022-12-11T13:52:03;98941.56;;;3.05;74.15
75891;BME280;64571;47.512;19.054;2022-12-11T13:55:20;98946.06;;;2.91;74.23
75891;BME280;64571;47.512;19.054;2022-12-11T13:58:24;98949.91;;;2.90;74.29
75891;BME280;64571;47.512;19.054;2022-12-11T14:01:33;98941.97;;;2.88;74.56
75891;BME280;64571;47.512;19.054;2022-12-11T14:04:36;98960.59;;;2.91;75.19
75891;BME280;64571;47.512;19.054;2022-12-11T14:07:46;98959.25;;;2.89;74.74
75891;BME280;64571;47.512;19.054;2022-12-11T14:10:52;98959.84;;;2.81;75.01
75891;BME280;64571;47.512;19.054;2022-12-11T14:13:57;98978.44;;;2.94;75.35
75891;BME280;64571;47.512;19.054;2022-12-11T14:17:01;98974.06;;;2.83;74.89
75891;BME280;64571;47.512;19.054;2022-12-11T14:20:04;98978.53;;;2.68;74.90
75891;BME280;64571;47.512;19.054;2022-12-11T14:23:22;98988.72;;;2.63;75.13
75891;BME280;64571;47.512;19.054;2022-12-11T14:26:29;98985.41;;;2.71;75.54
75891;BME280;64571;47.512;19.054;2022-12-11T14:29:32;98996.59;;;2.85;75.66
75891;BME280;64571;47.512;19.054;2022-12-11T14:32:37;99007.63;;;2.64;75.33
75891;BME280;64571;47.512;19.054;2022-12-11T14:35:44;99009.31;;;2.55;75.72
75891;BME280;64571;47.512;19.054;2022-12-11T14:38:58;99027.69;;;2.54;76.38
75891;BME280;64571;47.512;19.054;2022-12-11T14:42:09;99016.44;;;2.56;76.21
75891;BME280;64571;47.512;19.054;2022-12-11T14:48:43;99037.03;;;2.48;77.48
75891;BME280;64571;47.512;19.054;2022-12-11T14:51:47;99019.53;;;2.39;77.83
75891;BME280;64571;47.512;19.054;2022-12-11T14:55:00;99034.59;;;2.37;77.50
75891;BME280;64571;47.512;19.054;2022-12-11T14:58:13;99035.97;;;2.29;77.71
75891;BME280;64571;47.512;19.054;2022-12-11T15:01:31;99038.47;;;2.25;77.58
75891;BME280;64571;47.512;19.054;2022-12-11T15:04:33;99041.19;;;2.31;78.09
75891;BME280;64571;47.512;19.054;2022-12-11T15:07:37;99039.00;;;2.33;77.87
75891;BME280;64571;47.512;19.054;2022-12-11T15:10:42;99042.81;;;2.42;78.62
75891;BME280;64571;47.512;19.054;2022-12-11T15:13:59;99043.38;;;2.39;78.03
75891;BME280;64571;47.512;19.054;2022-12-11T15:17:02;99057.06;;;2.34;77.94
75891;BME280;64571;47.512;19.054;2022-12-11T15:20:09;99052.16;;;2.31;77.75
75891;BME280;64571;47.512;19.054;2022-12-11T15:23:21;99064.72;;;2.42;78.26
75891;BME280;64571;47.512;19.054;2022-12-11T15:29:38;99056.81;;;2.30;76.83
75891;BME280;64571;47.512;19.054;2022-12-11T15:32:41;99062.81;;;2.37;76.57
75891;BME280;64571;47.512;19.054;2022-12-11T15:36:04;99063.37;;;2.34;76.78
75891;BME280;64571;47.512;19.054;2022-12-11T15:39:07;99069.16;;;2.27;75.85
75891;BME280;64571;47.512;19.054;2022-12-11T15:42:13;99073.25;;;2.20;76.08
75891;BME280;64571;47.512;19.054;2022-12-11T15:45:21;99068.63;;;2.10;75.60
75891;BME280;64571;47.512;19.054;2022-12-11T15:48:24;99066.72;;;2.00;75.64
75891;BME280;64571;47.512;19.054;2022-12-11T15:51:26;99073.00;;;2.06;75.39
75891;BME280;64571;47.512;19.054;2022-12-11T15:54:30;99073.03;;;2.16;75.79
75891;BME280;64571;47.512;19.054;2022-12-11T15:57:32;99085.63;;;2.17;75.39
75891;BME280;64571;47.512;19.054;2022-12-11T16:00:35;99084.81;;;2.12;75.42
75891;BME280;64571;47.512;19.054;2022-12-11T16:03:38;99080.69;;;2.14;75.45
75891;BME280;64571;47.512;19.054;2022-12-11T16:06:40;99079.59;;;2.10;75.09
75891;BME280;64571;47.512;19.054;2022-12-11T16:09:46;99086.72;;;2.06;75.07
75891;BME280;64571;47.512;19.054;2022-12-11T16:12:49;99092.47;;;2.05;74.72
75891;BME280;64571;47.512;19.054;2022-12-11T16:15:52;99088.91;;;1.99;74.74
75891;BME280;64571;47.512;19.054;2022-12-11T16:18:55;99091.09;;;2.07;74.46
75891;BME280;64571;47.512;19.054;2022-12-11T16:21:58;99101.78;;;2.03;74.15
75891;BME280;64571;47.512;19.054;2022-12-11T16:25:00;99107.00;;;2.00;73.96
75891;BME280;64571;47.512;19.054;2022-12-11T16:28:03;99107.25;;;2.14;74.16
75891;BME280;64571;47.512;19.054;2022-12-11T16:31:13;99098.78;;;2.00;73.81
75891;BME280;64571;47.512;19.054;2022-12-11T16:34:16;99100.41;;;2.11;73.96
75891;BME280;64571;47.512;19.054;2022-12-11T16:37:19;99102.03;;;2.07;73.30
75891;BME280;64571;47.512;19.054;2022-12-11T16:40:22;99100.97;;;2.03;73.44
75891;BME280;64571;47.512;19.054;2022-12-11T16:43:24;99110.00;;;2.03;73.42
75891;BME280;64571;47.512;19.054;2022-12-11T16:46:26;99112.47;;;2.00;73.37
75891;BME280;64571;47.512;19.054;2022-12-11T16:49:29;99115.50;;;2.03;73.09
75891;BME280;64571;47.512;19.054;2022-12-11T16:52:32;99119.31;;;1.97;72.94
75891;BME280;64571;47.512;19.054;2022-12-11T16:55:35;99120.69;;;1.95;73.11
75891;BME280;64571;47.512;19.054;2022-12-11T16:58:37;99113.00;;;1.97;72.68
75891;BME280;64571;47.512;19.054;2022-12-11T17:01:41;99117.37;;;1.98;73.18
75891;BME280;64571;47.512;19.054;2022-12-11T17:04:44;99120.12;;;1.98;73.23
75891;BME280;64571;47.512;19.054;2022-12-11T17:07:54;99114.94;;;1.81;73.10
75891;BME280;64571;47.512;19.054;2022-12-11T17:10:57;99113.00;;;1.87;73.43
75891;BME280;64571;47.512;19.054;2022-12-11T17:13:59;99106.72;;;1.96;73.36
75891;BME280;64571;47.512;19.054;2022-12-11T17:17:02;99118.75;;;2.11;72.50
75891;BME280;64571;47.512;19.054;2022-12-11T17:20:05;99118.22;;;1.98;72.44
75891;BME280;64571;47.512;19.054;2022-12-11T17:23:09;99123.44;;;1.95;72.33
75891;BME280;64571;47.512;19.054;2022-12-11T17:26:11;99113.56;;;2.04;72.45
75891;BME280;64571;47.512;19.054;2022-12-11T17:29:14;99115.75;;;2.02;71.97
75891;BME280;64571;47.512;19.054;2022-12-11T17:32:16;99122.63;;;1.99;71.82
75891;BME280;64571;47.512;19.054;2022-12-11T17:35:19;99128.62;;;2.01;72.34
75891;BME280;64571;47.512;19.054;2022-12-11T17:38:22;99128.91;;;1.90;71.90
75891;BME280;64571;47.512;19.054;2022-12-11T17:41:24;99127.81;;;1.96;72.32
75891;BME280;64571;47.512;19.054;2022-12-11T17:44:26;99125.88;;;1.96;72.34